createdAt,value
2023-03-02T00:02:02.260Z,-2.67
2023-03-02T00:04:33.717Z,-2.71
2023-03-02T00:07:04.784Z,-2.75
2023-03-02T00:09:32.530Z,-2.74
2023-03-02T00:11:59.807Z,-2.72
2023-03-02T00:14:26.942Z,-2.72
2023-03-02T00:16:54.033Z,-2.68
2023-03-02T00:19:21.694Z,-2.66
2023-03-02T00:21:48.734Z,-2.72
2023-03-02T00:24:15.853Z,-2.73
2023-03-02T00:26:43.128Z,-2.75
2023-03-02T00:29:10.208Z,-2.73
2023-03-02T00:31:38.032Z,-2.70
2023-03-02T00:34:05.174Z,-2.69
2023-03-02T00:36:32.476Z,-2.74
2023-03-02T00:38:59.555Z,-2.72
2023-03-02T00:41:26.794Z,-2.68
2023-03-02T00:43:53.854Z,-2.69
2023-03-02T00:46:23.176Z,-2.70
2023-03-02T00:48:51.332Z,-2.70
2023-03-02T00:51:18.545Z,-2.72
2023-03-02T00:53:45.673Z,-2.69
2023-03-02T00:56:12.888Z,-2.68
2023-03-02T00:58:40.544Z,-2.66
2023-03-02T01:01:10.630Z,-2.65
2023-03-02T01:03:38.148Z,-2.65
2023-03-02T01:06:05.820Z,-2.68
2023-03-02T01:08:32.882Z,-2.69
2023-03-02T01:11:01.525Z,-2.70
2023-03-02T01:13:28.986Z,-2.69
2023-03-02T01:16:03.098Z,-2.75
2023-03-02T01:18:30.306Z,-2.78
2023-03-02T01:21:05.666Z,-2.79
2023-03-02T01:23:32.764Z,-2.80
2023-03-02T01:25:59.960Z,-2.82
2023-03-02T01:28:27.039Z,-2.89
2023-03-02T01:30:54.407Z,-2.92
2023-03-02T01:33:21.777Z,-2.92
2023-03-02T01:35:48.876Z,-2.96
2023-03-02T01:38:16.048Z,-3.03
2023-03-02T01:40:43.169Z,-3.02
2023-03-02T01:43:15.906Z,-3.01
2023-03-02T01:45:53.684Z,-2.97
2023-03-02T01:48:28.499Z,-3.00
2023-03-02T01:50:56.179Z,-2.98
2023-03-02T01:53:26.113Z,-3.01
2023-03-02T01:55:53.430Z,-3.01
2023-03-02T01:58:20.978Z,-2.99
2023-03-02T02:00:48.370Z,-3.01
2023-03-02T02:03:24.111Z,-3.07
2023-03-02T02:06:29.011Z,-3.15
2023-03-02T02:08:57.512Z,-3.17
2023-03-02T02:11:25.422Z,-3.18
2023-03-02T02:13:55.803Z,-3.21
2023-03-02T02:16:23.059Z,-3.23
2023-03-02T02:18:50.369Z,-3.19
2023-03-02T02:21:19.084Z,-3.17
2023-03-02T02:24:03.143Z,-3.22
2023-03-02T02:26:56.360Z,-3.29
2023-03-02T02:29:32.944Z,-3.34
2023-03-02T02:32:13.957Z,-3.32
2023-03-02T02:35:05.087Z,-3.28
2023-03-02T02:37:36.014Z,-3.30
2023-03-02T02:40:07.489Z,-3.31
2023-03-02T02:42:36.994Z,-3.31
2023-03-02T02:45:07.060Z,-3.33
2023-03-02T02:47:34.261Z,-3.37
2023-03-02T02:50:01.415Z,-3.37
2023-03-02T02:52:29.080Z,-3.41
2023-03-02T02:54:57.425Z,-3.51
2023-03-02T02:57:26.916Z,-3.51
2023-03-02T02:59:56.445Z,-3.48
2023-03-02T03:02:28.383Z,-3.55
2023-03-02T03:05:03.002Z,-3.57
2023-03-02T03:07:31.483Z,-3.57
2023-03-02T03:10:21.994Z,-3.53
2023-03-02T03:12:49.786Z,-3.48
2023-03-02T03:15:17.041Z,-3.46
2023-03-02T03:17:49.657Z,-3.48
2023-03-02T03:20:17.342Z,-3.54
2023-03-02T03:22:44.482Z,-3.55
2023-03-02T03:25:15.255Z,-3.54
2023-03-02T03:27:43.195Z,-3.60
2023-03-02T03:30:12.270Z,-3.59
2023-03-02T03:32:39.653Z,-3.66
2023-03-02T03:35:11.643Z,-3.70
2023-03-02T03:37:40.064Z,-3.68
2023-03-02T03:40:09.727Z,-3.76
2023-03-02T03:42:39.725Z,-3.79
2023-03-02T03:45:08.786Z,-3.74
2023-03-02T03:47:36.271Z,-3.72
2023-03-02T03:50:03.753Z,-3.69
2023-03-02T03:52:30.957Z,-3.70
2023-03-02T03:54:59.535Z,-3.68
2023-03-02T03:57:29.819Z,-3.67
2023-03-02T03:59:56.894Z,-3.71
2023-03-02T04:02:24.758Z,-3.76
2023-03-02T04:04:52.196Z,-3.75
2023-03-02T04:07:19.575Z,-3.74
2023-03-02T04:09:46.748Z,-3.85
2023-03-02T04:12:13.875Z,-3.86
2023-03-02T04:14:40.925Z,-3.86
2023-03-02T04:17:08.232Z,-3.83
2023-03-02T04:19:35.561Z,-3.85
2023-03-02T04:22:04.093Z,-3.89
2023-03-02T04:24:32.149Z,-3.91
2023-03-02T04:26:59.213Z,-3.90
2023-03-02T04:29:26.291Z,-3.96
2023-03-02T04:31:53.418Z,-4.00
2023-03-02T04:34:20.623Z,-4.00
2023-03-02T04:36:47.857Z,-3.97
2023-03-02T04:39:16.947Z,-3.92
2023-03-02T04:41:45.546Z,-3.89
2023-03-02T04:44:13.610Z,-3.92
2023-03-02T04:46:43.509Z,-3.92
2023-03-02T04:49:11.932Z,-3.93
2023-03-02T04:51:44.251Z,-3.88
2023-03-02T04:54:19.507Z,-3.91
2023-03-02T04:56:48.620Z,-3.92
2023-03-02T04:59:16.275Z,-3.96
2023-03-02T05:01:44.511Z,-3.99
2023-03-02T05:04:13.245Z,-3.97
2023-03-02T05:06:40.385Z,-3.97
2023-03-02T05:09:07.864Z,-4.03
2023-03-02T05:11:35.110Z,-4.05
2023-03-02T05:14:05.038Z,-4.05
2023-03-02T05:16:34.985Z,-4.08
2023-03-02T05:19:02.994Z,-4.06
2023-03-02T05:21:30.485Z,-4.11
2023-03-02T05:23:57.654Z,-4.17
2023-03-02T05:26:24.733Z,-4.18
2023-03-02T05:28:53.962Z,-4.16
2023-03-02T05:31:23.990Z,-4.13
2023-03-02T05:33:51.092Z,-4.18
2023-03-02T05:36:20.279Z,-4.24
2023-03-02T05:38:48.443Z,-4.24
2023-03-02T05:41:15.484Z,-4.22
2023-03-02T05:43:42.534Z,-4.15
2023-03-02T05:46:09.633Z,-4.10
2023-03-02T05:48:36.828Z,-4.07
2023-03-02T05:51:04.302Z,-4.07
2023-03-02T05:53:31.426Z,-4.10
2023-03-02T05:55:58.524Z,-4.12
2023-03-02T05:58:25.641Z,-4.17
2023-03-02T06:00:52.705Z,-4.18
2023-03-02T06:03:19.858Z,-4.21
2023-03-02T06:05:50.951Z,-4.21
2023-03-02T06:08:19.012Z,-4.24
2023-03-02T06:10:46.248Z,-4.24
2023-03-02T06:13:13.352Z,-4.24
2023-03-02T06:15:40.631Z,-4.22
2023-03-02T06:18:07.838Z,-4.15
2023-03-02T06:20:34.902Z,-4.12
2023-03-02T06:23:02.044Z,-4.11
2023-03-02T06:25:29.104Z,-4.10
2023-03-02T06:27:56.158Z,-4.10
2023-03-02T06:30:25.463Z,-4.06
2023-03-02T06:32:52.917Z,-4.01
2023-03-02T06:35:21.157Z,-3.99
2023-03-02T06:37:48.289Z,-3.96
2023-03-02T06:40:15.515Z,-3.88
2023-03-02T06:42:42.859Z,-3.82
2023-03-02T06:45:10.771Z,-3.80
2023-03-02T06:47:38.338Z,-3.76
2023-03-02T06:50:06.520Z,-3.67
2023-03-02T06:52:33.710Z,-3.61
2023-03-02T06:55:00.841Z,-3.55
2023-03-02T06:57:33.770Z,-3.47
2023-03-02T07:00:04.264Z,-3.43
2023-03-02T07:02:31.328Z,-3.38
2023-03-02T07:04:58.425Z,-3.30
2023-03-02T07:07:25.578Z,-3.23
2023-03-02T07:09:52.659Z,-3.18
2023-03-02T07:12:19.754Z,-3.11
2023-03-02T07:14:46.859Z,-3.04
2023-03-02T07:17:14.005Z,-2.95
2023-03-02T07:19:41.437Z,-2.86
2023-03-02T07:22:08.520Z,-2.77
2023-03-02T07:24:35.633Z,-2.69
2023-03-02T07:27:02.717Z,-2.59
2023-03-02T07:29:30.013Z,-2.50
2023-03-02T07:31:59.874Z,-2.44
2023-03-02T07:34:27.584Z,-2.35
2023-03-02T07:36:54.758Z,-2.24
2023-03-02T07:39:21.951Z,-2.10
2023-03-02T07:41:48.993Z,-1.94
2023-03-02T07:44:20.275Z,-1.82
2023-03-02T07:46:47.502Z,-1.65
2023-03-02T07:49:14.640Z,-1.46
2023-03-02T07:51:41.681Z,-1.31
2023-03-02T07:54:08.989Z,-1.13
2023-03-02T07:56:36.206Z,-0.97
2023-03-02T07:59:03.835Z,-0.77
2023-03-02T08:01:31.477Z,-0.61
2023-03-02T08:03:58.899Z,-0.44
2023-03-02T08:06:25.980Z,-0.32
2023-03-02T08:08:53.048Z,-0.21
2023-03-02T08:11:20.169Z,-0.13
2023-03-02T08:13:47.228Z,-0.04
2023-03-02T08:16:15.765Z,0.01
2023-03-02T08:18:43.188Z,0.10
2023-03-02T08:21:16.019Z,0.20
2023-03-02T08:23:43.285Z,0.26
2023-03-02T08:26:13.513Z,0.28
2023-03-02T08:28:41.493Z,0.36
2023-03-02T08:31:09.235Z,0.44
2023-03-02T08:33:37.032Z,0.54
2023-03-02T08:36:09.584Z,0.62
2023-03-02T08:38:36.695Z,0.69
2023-03-02T08:41:10.043Z,0.82
2023-03-02T08:43:37.168Z,0.98
2023-03-02T08:46:04.922Z,1.12
2023-03-02T08:48:32.094Z,1.23
2023-03-02T08:51:04.546Z,1.34
2023-03-02T08:53:34.320Z,1.41
2023-03-02T08:56:01.590Z,1.51
2023-03-02T08:58:29.239Z,1.62
2023-03-02T09:00:56.527Z,1.76
2023-03-02T09:03:23.608Z,1.85
2023-03-02T09:05:51.109Z,2.00
2023-03-02T09:08:18.182Z,2.19
2023-03-02T09:10:45.415Z,2.39
2023-03-02T09:13:12.559Z,2.59
2023-03-02T09:15:39.601Z,2.79
2023-03-02T09:18:06.807Z,2.96
2023-03-02T09:20:34.541Z,3.11
2023-03-02T09:23:01.614Z,3.27
2023-03-02T09:25:29.287Z,3.40
2023-03-02T09:27:56.477Z,3.49
2023-03-02T09:30:23.673Z,3.62
2023-03-02T09:32:50.839Z,3.78
2023-03-02T09:35:18.006Z,3.91
2023-03-02T09:37:45.094Z,4.03
2023-03-02T09:40:24.368Z,4.14
2023-03-02T09:43:03.929Z,4.30
2023-03-02T09:45:40.552Z,4.48
2023-03-02T09:48:30.701Z,4.64
2023-03-02T09:51:25.624Z,4.84
2023-03-02T09:54:02.833Z,4.97
2023-03-02T09:56:31.043Z,5.14
2023-03-02T09:59:02.689Z,5.29
2023-03-02T10:01:37.944Z,5.37
2023-03-02T10:04:28.124Z,5.47
2023-03-02T10:07:05.663Z,5.55
2023-03-02T10:09:32.792Z,5.68
2023-03-02T10:12:10.424Z,5.73
2023-03-02T10:14:57.526Z,5.80
2023-03-02T10:17:43.720Z,5.85
2023-03-02T10:20:19.128Z,5.93
2023-03-02T10:22:49.848Z,6.01
2023-03-02T10:25:24.296Z,6.05
2023-03-02T10:27:54.174Z,6.11
2023-03-02T10:30:29.903Z,6.19
2023-03-02T10:33:00.842Z,6.31
2023-03-02T10:35:28.902Z,6.35
2023-03-02T10:38:04.394Z,6.35
2023-03-02T10:40:43.989Z,6.41
2023-03-02T10:43:20.907Z,6.50
2023-03-02T10:46:04.652Z,6.61
2023-03-02T10:48:31.861Z,6.71
2023-03-02T10:51:00.552Z,6.80
2023-03-02T10:53:28.990Z,6.85
2023-03-02T10:55:56.078Z,6.95
2023-03-02T10:58:29.605Z,6.93
2023-03-02T11:01:04.756Z,7.05
2023-03-02T11:03:32.876Z,7.18
2023-03-02T11:06:12.172Z,7.22
2023-03-02T11:08:39.191Z,7.34
2023-03-02T11:11:06.230Z,7.32
2023-03-02T11:13:37.978Z,7.46
2023-03-02T11:16:23.255Z,7.53
2023-03-02T11:18:55.007Z,7.63
2023-03-02T11:21:25.985Z,7.64
2023-03-02T11:24:00.815Z,7.69
2023-03-02T11:26:46.187Z,7.72
2023-03-02T11:29:29.228Z,7.67
2023-03-02T11:32:06.057Z,7.53
2023-03-02T11:34:43.499Z,7.58
2023-03-02T11:37:23.904Z,7.65
2023-03-02T11:40:01.136Z,7.65
2023-03-02T11:42:32.413Z,7.78
2023-03-02T11:45:16.935Z,7.94
2023-03-02T11:48:03.341Z,7.98
2023-03-02T11:50:33.154Z,8.01
2023-03-02T11:53:03.561Z,8.05
2023-03-02T11:55:34.340Z,8.02
2023-03-02T11:58:03.417Z,8.08
2023-03-02T12:00:34.077Z,8.18
2023-03-02T12:03:06.975Z,8.15
2023-03-02T12:05:37.204Z,8.10
2023-03-02T12:08:19.353Z,8.13
2023-03-02T12:10:59.474Z,8.23
2023-03-02T12:13:52.888Z,8.21
2023-03-02T12:16:22.662Z,8.17
2023-03-02T12:18:51.185Z,8.11
2023-03-02T12:21:23.366Z,8.22
2023-03-02T12:23:50.449Z,8.22
2023-03-02T12:26:20.261Z,8.26
2023-03-02T12:29:11.732Z,8.21
2023-03-02T12:31:40.942Z,8.20
2023-03-02T12:34:39.621Z,8.22
2023-03-02T12:37:16.390Z,8.24
2023-03-02T12:40:03.085Z,8.25
2023-03-02T12:43:00.124Z,8.23
2023-03-02T12:45:39.967Z,8.26
2023-03-02T12:48:24.069Z,8.31
2023-03-02T12:50:54.241Z,8.23
2023-03-02T12:53:21.316Z,8.08
2023-03-02T12:55:48.727Z,8.05
2023-03-02T12:58:27.787Z,8.00
2023-03-02T13:00:57.030Z,8.04
2023-03-02T13:03:26.458Z,8.12
2023-03-02T13:06:05.103Z,8.08
2023-03-02T13:08:33.121Z,8.13
2023-03-02T13:11:03.635Z,8.08
2023-03-02T13:13:39.526Z,8.06
2023-03-02T13:16:19.508Z,8.10
2023-03-02T13:18:47.246Z,8.10
2023-03-02T13:21:15.031Z,8.08
2023-03-02T13:23:50.263Z,8.04
2023-03-02T13:26:28.435Z,7.94
2023-03-02T13:29:19.263Z,7.90
2023-03-02T13:31:46.824Z,7.90
2023-03-02T13:34:27.529Z,7.93
2023-03-02T13:36:55.078Z,7.93
2023-03-02T13:39:26.279Z,7.92
2023-03-02T13:41:56.358Z,7.93
2023-03-02T13:44:28.952Z,7.93
2023-03-02T13:46:56.401Z,7.91
2023-03-02T13:49:35.783Z,7.90
2023-03-02T13:52:07.745Z,7.94
2023-03-02T13:54:36.555Z,7.96
2023-03-02T13:57:04.399Z,7.94
2023-03-02T13:59:32.316Z,7.94
2023-03-02T14:01:59.501Z,7.92
2023-03-02T14:04:26.695Z,7.87
2023-03-02T14:06:54.784Z,7.82
2023-03-02T14:09:22.118Z,7.77
2023-03-02T14:11:51.576Z,7.75
2023-03-02T14:14:21.368Z,7.73
2023-03-02T14:16:48.590Z,7.67
2023-03-02T14:19:20.102Z,7.66
2023-03-02T14:21:48.006Z,7.69
2023-03-02T14:24:15.565Z,7.68
2023-03-02T14:26:47.994Z,7.65
2023-03-02T14:29:28.460Z,7.61
2023-03-02T14:31:57.192Z,7.59
2023-03-02T14:34:24.276Z,7.61
2023-03-02T14:36:52.930Z,7.52
2023-03-02T14:39:32.924Z,7.48
2023-03-02T14:42:00.450Z,7.45
2023-03-02T14:44:27.606Z,7.44
2023-03-02T14:46:54.748Z,7.37
2023-03-02T14:49:21.843Z,7.35
2023-03-02T14:52:04.657Z,7.33
2023-03-02T14:54:37.524Z,7.23
2023-03-02T14:57:07.312Z,7.21
2023-03-02T14:59:34.360Z,7.18
2023-03-02T15:02:10.397Z,7.14
2023-03-02T15:04:47.334Z,7.11
2023-03-02T15:07:21.028Z,7.10
2023-03-02T15:09:48.478Z,7.06
2023-03-02T15:12:15.520Z,7.02
2023-03-02T15:14:42.580Z,6.96
2023-03-02T15:17:10.599Z,6.86
2023-03-02T15:19:37.695Z,6.74
2023-03-02T15:22:04.800Z,6.72
2023-03-02T15:24:33.329Z,6.73
2023-03-02T15:27:00.787Z,6.73
2023-03-02T15:29:27.831Z,6.72
2023-03-02T15:31:54.985Z,6.72
2023-03-02T15:34:22.144Z,6.69
2023-03-02T15:36:49.430Z,6.67
2023-03-02T15:39:16.776Z,6.64
2023-03-02T15:41:43.936Z,6.62
2023-03-02T15:44:22.872Z,6.57
2023-03-02T15:46:52.427Z,6.50
2023-03-02T15:49:23.117Z,6.44
2023-03-02T15:51:54.579Z,6.39
2023-03-02T15:54:21.918Z,6.37
2023-03-02T15:56:53.358Z,6.33
2023-03-02T15:59:21.683Z,6.24
2023-03-02T16:01:49.609Z,6.20
2023-03-02T16:04:16.748Z,6.13
2023-03-02T16:06:44.096Z,6.09
2023-03-02T16:09:11.222Z,6.04
2023-03-02T16:11:38.276Z,6.01
2023-03-02T16:14:05.322Z,5.94
2023-03-02T16:16:32.773Z,5.91
2023-03-02T16:18:59.887Z,5.85
2023-03-02T16:21:28.632Z,5.81
2023-03-02T16:24:02.985Z,5.75
2023-03-02T16:26:31.855Z,5.69
2023-03-02T16:28:59.383Z,5.62
2023-03-02T16:31:27.034Z,5.58
2023-03-02T16:33:55.874Z,5.52
2023-03-02T16:36:23.240Z,5.47
2023-03-02T16:38:50.310Z,5.44
2023-03-02T16:41:22.275Z,5.40
2023-03-02T16:43:54.241Z,5.38
2023-03-02T16:46:23.012Z,5.33
2023-03-02T16:48:50.550Z,5.23
2023-03-02T16:51:18.596Z,5.19
2023-03-02T16:53:46.373Z,5.16
2023-03-02T16:56:14.309Z,5.09
2023-03-02T16:58:42.119Z,5.04
2023-03-02T17:01:11.989Z,4.96
2023-03-02T17:03:39.100Z,4.84
2023-03-02T17:06:08.531Z,4.78
2023-03-02T17:08:35.768Z,4.76
2023-03-02T17:11:02.873Z,4.68
2023-03-02T17:13:30.024Z,4.64
2023-03-02T17:15:57.708Z,4.50
2023-03-02T17:18:27.613Z,4.44
2023-03-02T17:20:56.937Z,4.38
2023-03-02T17:23:24.977Z,4.35
2023-03-02T17:25:52.023Z,4.30
2023-03-02T17:28:19.090Z,4.27
2023-03-02T17:30:46.582Z,4.25
2023-03-02T17:33:13.840Z,4.23
2023-03-02T17:35:40.919Z,4.15
2023-03-02T17:38:08.034Z,4.07
2023-03-02T17:40:35.479Z,4.03
2023-03-02T17:43:02.675Z,3.96
2023-03-02T17:45:29.794Z,3.89
2023-03-02T17:47:58.343Z,3.84
2023-03-02T17:50:26.282Z,3.79
2023-03-02T17:52:54.067Z,3.70
2023-03-02T17:55:21.117Z,3.54
2023-03-02T17:57:48.185Z,3.47
2023-03-02T18:00:18.246Z,3.39
2023-03-02T18:02:45.421Z,3.32
2023-03-02T18:05:12.919Z,3.25
2023-03-02T18:07:40.307Z,3.21
2023-03-02T18:10:07.666Z,3.13
2023-03-02T18:12:34.942Z,2.98
2023-03-02T18:15:02.108Z,2.77
2023-03-02T18:17:29.211Z,2.73
2023-03-02T18:19:56.287Z,2.62
2023-03-02T18:22:23.359Z,2.48
2023-03-02T18:24:51.823Z,2.41
2023-03-02T18:27:19.321Z,2.42
2023-03-02T18:29:46.409Z,2.33
2023-03-02T18:32:13.946Z,2.30
2023-03-02T18:34:41.141Z,2.22
2023-03-02T18:37:08.393Z,2.12
2023-03-02T18:39:35.683Z,2.02
2023-03-02T18:42:02.975Z,1.98
2023-03-02T18:44:31.197Z,1.93
2023-03-02T18:46:58.715Z,1.85
2023-03-02T18:49:25.892Z,1.83
2023-03-02T18:51:55.042Z,1.76
2023-03-02T18:54:23.520Z,1.75
2023-03-02T18:56:50.993Z,1.67
2023-03-02T18:59:18.288Z,1.58
2023-03-02T19:01:46.189Z,1.50
2023-03-02T19:04:14.327Z,1.48
2023-03-02T19:06:44.970Z,1.50
2023-03-02T19:09:12.161Z,1.45
2023-03-02T19:11:39.201Z,1.35
2023-03-02T19:14:07.447Z,1.29
2023-03-02T19:16:35.364Z,1.25
2023-03-02T19:19:02.506Z,1.21
2023-03-02T19:21:29.621Z,1.16
2023-03-02T19:23:57.532Z,1.06
2023-03-02T19:26:24.955Z,1.05
2023-03-02T19:28:52.013Z,0.95
2023-03-02T19:31:19.289Z,0.97
2023-03-02T19:33:46.726Z,0.84
2023-03-02T19:36:13.904Z,0.68
2023-03-02T19:38:42.842Z,0.63
2023-03-02T19:41:12.812Z,0.64
2023-03-02T19:43:41.891Z,0.60
2023-03-02T19:46:10.779Z,0.60
2023-03-02T19:48:38.591Z,0.53
2023-03-02T19:51:07.731Z,0.53
2023-03-02T19:53:36.639Z,0.54
2023-03-02T19:56:09.257Z,0.52
2023-03-02T19:58:36.378Z,0.55
2023-03-02T20:01:04.358Z,0.47
2023-03-02T20:03:31.478Z,0.47
2023-03-02T20:05:59.461Z,0.44
2023-03-02T20:08:26.709Z,0.43
2023-03-02T20:10:53.926Z,0.38
2023-03-02T20:13:21.052Z,0.35
2023-03-02T20:15:48.198Z,0.29
2023-03-02T20:18:18.636Z,0.25
2023-03-02T20:20:47.067Z,0.22
2023-03-02T20:23:14.550Z,0.15
2023-03-02T20:25:42.171Z,0.13
2023-03-02T20:28:11.919Z,0.17
2023-03-02T20:30:45.082Z,0.18
2023-03-02T20:33:12.603Z,0.08
2023-03-02T20:35:42.202Z,0.04
2023-03-02T20:38:14.815Z,-0.01
2023-03-02T20:40:42.044Z,-0.05
2023-03-02T20:43:09.290Z,-0.08
2023-03-02T20:45:36.363Z,-0.10
2023-03-02T20:48:04.331Z,-0.13
2023-03-02T20:50:32.592Z,-0.14
2023-03-02T20:53:00.305Z,-0.25
2023-03-02T20:55:27.446Z,-0.24
2023-03-02T20:57:55.451Z,-0.29
2023-03-02T21:00:29.350Z,-0.26
2023-03-02T21:02:57.236Z,-0.26
2023-03-02T21:05:25.134Z,-0.34
2023-03-02T21:07:54.225Z,-0.37
2023-03-02T21:10:27.041Z,-0.42
2023-03-02T21:12:54.225Z,-0.42
2023-03-02T21:15:23.758Z,-0.45
2023-03-02T21:17:51.800Z,-0.44
2023-03-02T21:20:19.098Z,-0.45
2023-03-02T21:22:46.282Z,-0.46
2023-03-02T21:25:13.606Z,-0.54
2023-03-02T21:27:41.051Z,-0.55
2023-03-02T21:30:12.205Z,-0.51
2023-03-02T21:32:39.269Z,-0.49
2023-03-02T21:35:06.381Z,-0.51
2023-03-02T21:37:33.652Z,-0.58
2023-03-02T21:40:00.776Z,-0.68
2023-03-02T21:42:27.893Z,-0.70
2023-03-02T21:44:55.106Z,-0.70
2023-03-02T21:47:22.228Z,-0.69
2023-03-02T21:49:49.306Z,-0.68
2023-03-02T21:52:16.342Z,-0.71
2023-03-02T21:54:43.412Z,-0.71
2023-03-02T21:57:10.751Z,-0.73
2023-03-02T21:59:37.797Z,-0.73
2023-03-02T22:02:05.081Z,-0.73
2023-03-02T22:04:33.702Z,-0.75
2023-03-02T22:07:01.673Z,-0.74
2023-03-02T22:09:28.821Z,-0.78
2023-03-02T22:11:55.891Z,-0.79
2023-03-02T22:14:22.929Z,-0.86
2023-03-02T22:16:52.998Z,-0.91
2023-03-02T22:19:25.746Z,-0.91
2023-03-02T22:21:54.660Z,-0.97
2023-03-02T22:24:31.808Z,-0.98
2023-03-02T22:27:19.091Z,-1.01
2023-03-02T22:29:47.809Z,-1.10
2023-03-02T22:32:17.436Z,-1.14
2023-03-02T22:34:46.337Z,-1.18
2023-03-02T22:37:17.504Z,-1.18
2023-03-02T22:39:45.494Z,-1.15
2023-03-02T22:42:19.047Z,-1.18
2023-03-02T22:44:51.387Z,-1.15
2023-03-02T22:47:19.729Z,-1.25
2023-03-02T22:49:55.505Z,-1.28
2023-03-02T22:52:24.650Z,-1.32
2023-03-02T22:54:51.832Z,-1.35
2023-03-02T22:57:30.714Z,-1.39
2023-03-02T23:00:16.042Z,-1.50
2023-03-02T23:02:44.933Z,-1.51
2023-03-02T23:05:26.888Z,-1.44
2023-03-02T23:08:09.853Z,-1.49
2023-03-02T23:10:36.963Z,-1.57
2023-03-02T23:13:04.201Z,-1.58
2023-03-02T23:15:35.179Z,-1.57
2023-03-02T23:18:02.413Z,-1.66
2023-03-02T23:20:29.669Z,-1.71
2023-03-02T23:22:57.132Z,-1.74
2023-03-02T23:25:24.216Z,-1.75
2023-03-02T23:27:51.543Z,-1.76
2023-03-02T23:30:20.633Z,-1.73
2023-03-02T23:32:47.706Z,-1.70
2023-03-02T23:35:14.809Z,-1.77
2023-03-02T23:37:41.918Z,-1.75
2023-03-02T23:40:09.545Z,-1.77
2023-03-02T23:42:36.778Z,-1.79
2023-03-02T23:45:04.504Z,-1.85
2023-03-02T23:47:31.557Z,-1.84
2023-03-02T23:49:58.741Z,-1.85
2023-03-02T23:52:25.827Z,-1.84
2023-03-02T23:54:53.440Z,-1.82
2023-03-02T23:57:20.528Z,-1.78
2023-03-02T23:59:47.622Z,-1.79
